sensor_id;sensor_type;location;lat;lon;timestamp;temperature;humidity
12853;DHT22;6495;51.808;7.478;2023-07-20T00:01:36;18.90;99.90
12853;DHT22;6495;51.808;7.478;2023-07-20T00:04:05;18.90;99.90
12853;DHT22;6495;51.808;7.478;2023-07-20T00:06:33;18.90;99.90
12853;DHT22;6495;51.808;7.478;2023-07-20T00:09:03;18.80;99.90
12853;DHT22;6495;51.808;7.478;2023-07-20T00:11:32;18.80;99.90
12853;DHT22;6495;51.808;7.478;2023-07-20T00:14:04;18.90;99.90
12853;DHT22;6495;51.808;7.478;2023-07-20T00:16:32;18.80;99.90
12853;DHT22;6495;51.808;7.478;2023-07-20T00:19:01;18.80;99.90
12853;DHT22;6495;51.808;7.478;2023-07-20T00:21:30;18.80;99.90
12853;DHT22;6495;51.808;7.478;2023-07-20T00:23:58;18.80;99.90
12853;DHT22;6495;51.808;7.478;2023-07-20T00:26:28;18.80;99.90
12853;DHT22;6495;51.808;7.478;2023-07-20T00:28:56;18.80;99.90
12853;DHT22;6495;51.808;7.478;2023-07-20T00:31:24;18.70;99.90
12853;DHT22;6495;51.808;7.478;2023-07-20T00:33:53;18.70;99.90
12853;DHT22;6495;51.808;7.478;2023-07-20T00:36:22;18.70;99.90
12853;DHT22;6495;51.808;7.478;2023-07-20T00:38:50;18.70;99.90
12853;DHT22;6495;51.808;7.478;2023-07-20T00:41:19;18.70;99.90
12853;DHT22;6495;51.808;7.478;2023-07-20T00:43:50;18.70;99.90
12853;DHT22;6495;51.808;7.478;2023-07-20T00:46:21;18.70;99.90
12853;DHT22;6495;51.808;7.478;2023-07-20T00:48:53;18.70;99.90
12853;DHT22;6495;51.808;7.478;2023-07-20T00:51:23;18.70;99.90
12853;DHT22;6495;51.808;7.478;2023-07-20T00:53:53;18.60;99.90
12853;DHT22;6495;51.808;7.478;2023-07-20T00:56:22;18.60;99.90
12853;DHT22;6495;51.808;7.478;2023-07-20T00:58:52;18.60;99.90
12853;DHT22;6495;51.808;7.478;2023-07-20T01:01:22;18.60;99.90
12853;DHT22;6495;51.808;7.478;2023-07-20T01:03:50;18.60;99.90
12853;DHT22;6495;51.808;7.478;2023-07-20T01:06:26;18.60;99.90
12853;DHT22;6495;51.808;7.478;2023-07-20T01:09:08;18.60;99.90
12853;DHT22;6495;51.808;7.478;2023-07-20T01:11:48;18.50;99.90
12853;DHT22;6495;51.808;7.478;2023-07-20T01:14:23;18.50;99.90
12853;DHT22;6495;51.808;7.478;2023-07-20T01:16:52;18.50;99.90
12853;DHT22;6495;51.808;7.478;2023-07-20T01:19:20;18.50;99.90
12853;DHT22;6495;51.808;7.478;2023-07-20T01:21:53;18.50;99.90
12853;DHT22;6495;51.808;7.478;2023-07-20T01:24:57;18.50;99.90
12853;DHT22;6495;51.808;7.478;2023-07-20T01:28:09;18.50;99.90
12853;DHT22;6495;51.808;7.478;2023-07-20T01:31:21;18.50;99.90
12853;DHT22;6495;51.808;7.478;2023-07-20T01:33:54;18.50;99.90
12853;DHT22;6495;51.808;7.478;2023-07-20T01:36:28;18.50;99.90
12853;DHT22;6495;51.808;7.478;2023-07-20T01:39:00;18.50;99.90
12853;DHT22;6495;51.808;7.478;2023-07-20T01:41:33;18.40;99.90
12853;DHT22;6495;51.808;7.478;2023-07-20T01:44:04;18.40;99.90
12853;DHT22;6495;51.808;7.478;2023-07-20T01:46:34;18.40;99.90
12853;DHT22;6495;51.808;7.478;2023-07-20T01:49:02;18.40;99.90
12853;DHT22;6495;51.808;7.478;2023-07-20T01:51:31;18.40;99.90
12853;DHT22;6495;51.808;7.478;2023-07-20T01:53:59;18.40;99.90
12853;DHT22;6495;51.808;7.478;2023-07-20T01:56:28;18.40;99.90
12853;DHT22;6495;51.808;7.478;2023-07-20T01:58:56;18.40;99.90
12853;DHT22;6495;51.808;7.478;2023-07-20T02:01:25;18.40;99.90
12853;DHT22;6495;51.808;7.478;2023-07-20T02:03:57;18.40;99.90
12853;DHT22;6495;51.808;7.478;2023-07-20T02:06:26;18.40;99.90
12853;DHT22;6495;51.808;7.478;2023-07-20T02:08:54;18.40;99.90
12853;DHT22;6495;51.808;7.478;2023-07-20T02:11:23;18.40;99.90
12853;DHT22;6495;51.808;7.478;2023-07-20T02:13:51;18.40;99.90
12853;DHT22;6495;51.808;7.478;2023-07-20T02:16:22;18.40;99.90
12853;DHT22;6495;51.808;7.478;2023-07-20T02:18:51;18.40;99.90
12853;DHT22;6495;51.808;7.478;2023-07-20T02:21:21;18.30;99.90
12853;DHT22;6495;51.808;7.478;2023-07-20T02:23:50;18.30;99.90
12853;DHT22;6495;51.808;7.478;2023-07-20T02:26:18;18.30;99.90
12853;DHT22;6495;51.808;7.478;2023-07-20T02:28:47;18.30;99.90
12853;DHT22;6495;51.808;7.478;2023-07-20T02:31:16;18.30;99.90
12853;DHT22;6495;51.808;7.478;2023-07-20T02:33:44;18.30;99.90
12853;DHT22;6495;51.808;7.478;2023-07-20T02:36:13;18.30;99.90
12853;DHT22;6495;51.808;7.478;2023-07-20T02:38:42;18.30;99.90
12853;DHT22;6495;51.808;7.478;2023-07-20T02:41:10;18.30;99.90
12853;DHT22;6495;51.808;7.478;2023-07-20T02:43:39;18.30;99.90
12853;DHT22;6495;51.808;7.478;2023-07-20T02:46:09;18.20;99.90
12853;DHT22;6495;51.808;7.478;2023-07-20T02:48:37;18.20;99.90
12853;DHT22;6495;51.808;7.478;2023-07-20T02:51:06;18.20;99.90
12853;DHT22;6495;51.808;7.478;2023-07-20T02:53:36;18.10;99.90
12853;DHT22;6495;51.808;7.478;2023-07-20T02:56:06;18.10;99.90
12853;DHT22;6495;51.808;7.478;2023-07-20T02:58:39;18.10;99.90
12853;DHT22;6495;51.808;7.478;2023-07-20T03:01:13;18.10;99.90
12853;DHT22;6495;51.808;7.478;2023-07-20T03:03:42;18.10;99.90
12853;DHT22;6495;51.808;7.478;2023-07-20T03:06:14;18.10;99.90
12853;DHT22;6495;51.808;7.478;2023-07-20T03:08:43;18.10;99.90
12853;DHT22;6495;51.808;7.478;2023-07-20T03:11:16;18.00;99.90
12853;DHT22;6495;51.808;7.478;2023-07-20T03:13:45;18.00;99.90
12853;DHT22;6495;51.808;7.478;2023-07-20T03:16:18;18.00;99.90
12853;DHT22;6495;51.808;7.478;2023-07-20T03:18:49;18.00;99.90
12853;DHT22;6495;51.808;7.478;2023-07-20T03:21:17;18.00;99.90
12853;DHT22;6495;51.808;7.478;2023-07-20T03:23:46;18.00;99.90
12853;DHT22;6495;51.808;7.478;2023-07-20T03:26:16;18.00;99.90
12853;DHT22;6495;51.808;7.478;2023-07-20T03:28:44;18.00;99.90
12853;DHT22;6495;51.808;7.478;2023-07-20T03:31:13;18.00;99.90
12853;DHT22;6495;51.808;7.478;2023-07-20T03:33:42;18.00;99.90
12853;DHT22;6495;51.808;7.478;2023-07-20T03:36:10;18.00;99.90
12853;DHT22;6495;51.808;7.478;2023-07-20T03:38:39;18.00;99.90
12853;DHT22;6495;51.808;7.478;2023-07-20T03:41:07;17.90;99.90
12853;DHT22;6495;51.808;7.478;2023-07-20T03:43:37;17.90;99.90
12853;DHT22;6495;51.808;7.478;2023-07-20T03:46:06;17.90;99.90
12853;DHT22;6495;51.808;7.478;2023-07-20T03:48:35;17.80;99.90
12853;DHT22;6495;51.808;7.478;2023-07-20T03:51:04;17.80;99.90
12853;DHT22;6495;51.808;7.478;2023-07-20T03:53:32;17.70;99.90
12853;DHT22;6495;51.808;7.478;2023-07-20T03:56:00;17.70;99.90
12853;DHT22;6495;51.808;7.478;2023-07-20T03:58:29;17.70;99.90
12853;DHT22;6495;51.808;7.478;2023-07-20T04:00:59;17.70;99.90
12853;DHT22;6495;51.808;7.478;2023-07-20T04:03:28;17.70;99.90
12853;DHT22;6495;51.808;7.478;2023-07-20T04:05:59;17.60;99.90
12853;DHT22;6495;51.808;7.478;2023-07-20T04:08:52;17.60;99.90
12853;DHT22;6495;51.808;7.478;2023-07-20T04:11:20;17.60;99.90
12853;DHT22;6495;51.808;7.478;2023-07-20T04:13:49;17.60;99.90
12853;DHT22;6495;51.808;7.478;2023-07-20T04:16:18;17.60;99.90
12853;DHT22;6495;51.808;7.478;2023-07-20T04:18:48;17.60;99.90
12853;DHT22;6495;51.808;7.478;2023-07-20T04:21:16;17.60;99.90
12853;DHT22;6495;51.808;7.478;2023-07-20T04:23:44;17.60;99.90
12853;DHT22;6495;51.808;7.478;2023-07-20T04:26:13;17.60;99.90
12853;DHT22;6495;51.808;7.478;2023-07-20T04:28:42;17.60;99.90
12853;DHT22;6495;51.808;7.478;2023-07-20T04:35:49;17.60;99.90
12853;DHT22;6495;51.808;7.478;2023-07-20T04:38:32;17.50;99.90
12853;DHT22;6495;51.808;7.478;2023-07-20T04:41:12;17.50;99.90
12853;DHT22;6495;51.808;7.478;2023-07-20T04:43:44;17.50;99.90
12853;DHT22;6495;51.808;7.478;2023-07-20T04:46:20;17.50;99.90
12853;DHT22;6495;51.808;7.478;2023-07-20T04:48:51;17.50;99.90
12853;DHT22;6495;51.808;7.478;2023-07-20T04:51:20;17.50;99.90
12853;DHT22;6495;51.808;7.478;2023-07-20T04:53:51;17.50;99.90
12853;DHT22;6495;51.808;7.478;2023-07-20T04:56:21;17.50;99.90
12853;DHT22;6495;51.808;7.478;2023-07-20T04:58:53;17.50;99.90
12853;DHT22;6495;51.808;7.478;2023-07-20T05:01:21;17.50;99.90
12853;DHT22;6495;51.808;7.478;2023-07-20T05:03:52;17.50;99.90
12853;DHT22;6495;51.808;7.478;2023-07-20T05:06:23;17.50;99.90
12853;DHT22;6495;51.808;7.478;2023-07-20T05:08:52;17.50;99.90
12853;DHT22;6495;51.808;7.478;2023-07-20T05:11:21;17.50;99.90
12853;DHT22;6495;51.808;7.478;2023-07-20T05:13:50;17.50;99.90
12853;DHT22;6495;51.808;7.478;2023-07-20T05:16:19;17.40;99.90
12853;DHT22;6495;51.808;7.478;2023-07-20T05:18:47;17.50;99.90
12853;DHT22;6495;51.808;7.478;2023-07-20T05:21:16;17.40;99.90
12853;DHT22;6495;51.808;7.478;2023-07-20T05:23:47;17.50;99.90
12853;DHT22;6495;51.808;7.478;2023-07-20T05:26:16;17.50;99.90
12853;DHT22;6495;51.808;7.478;2023-07-20T05:28:44;17.50;99.90
12853;DHT22;6495;51.808;7.478;2023-07-20T05:31:13;17.50;99.90
12853;DHT22;6495;51.808;7.478;2023-07-20T05:33:43;17.50;99.90
12853;DHT22;6495;51.808;7.478;2023-07-20T05:36:13;17.50;99.90
12853;DHT22;6495;51.808;7.478;2023-07-20T05:38:41;17.50;99.90
12853;DHT22;6495;51.808;7.478;2023-07-20T05:41:11;17.50;99.90
12853;DHT22;6495;51.808;7.478;2023-07-20T05:43:41;17.50;99.90
12853;DHT22;6495;51.808;7.478;2023-07-20T05:46:10;17.50;99.90
12853;DHT22;6495;51.808;7.478;2023-07-20T05:48:38;17.50;99.90
12853;DHT22;6495;51.808;7.478;2023-07-20T05:51:06;17.50;99.90
12853;DHT22;6495;51.808;7.478;2023-07-20T05:53:35;17.50;99.90
12853;DHT22;6495;51.808;7.478;2023-07-20T05:56:05;17.50;99.90
12853;DHT22;6495;51.808;7.478;2023-07-20T05:58:38;17.50;99.90
12853;DHT22;6495;51.808;7.478;2023-07-20T06:01:07;17.60;99.90
12853;DHT22;6495;51.808;7.478;2023-07-20T06:03:35;17.60;99.90
12853;DHT22;6495;51.808;7.478;2023-07-20T06:06:05;17.70;99.90
12853;DHT22;6495;51.808;7.478;2023-07-20T06:08:33;17.70;99.90
12853;DHT22;6495;51.808;7.478;2023-07-20T06:11:02;17.80;99.90
12853;DHT22;6495;51.808;7.478;2023-07-20T06:13:32;17.90;99.90
12853;DHT22;6495;51.808;7.478;2023-07-20T06:16:02;18.00;99.90
12853;DHT22;6495;51.808;7.478;2023-07-20T06:18:30;18.00;99.90
12853;DHT22;6495;51.808;7.478;2023-07-20T06:20:59;18.10;99.90
12853;DHT22;6495;51.808;7.478;2023-07-20T06:23:27;18.10;99.90
12853;DHT22;6495;51.808;7.478;2023-07-20T06:25:56;18.20;99.90
12853;DHT22;6495;51.808;7.478;2023-07-20T06:28:25;18.30;99.90
12853;DHT22;6495;51.808;7.478;2023-07-20T06:31:01;18.30;99.90
12853;DHT22;6495;51.808;7.478;2023-07-20T06:33:31;18.40;99.90
12853;DHT22;6495;51.808;7.478;2023-07-20T06:36:01;18.40;99.90
12853;DHT22;6495;51.808;7.478;2023-07-20T06:38:30;18.40;99.90
12853;DHT22;6495;51.808;7.478;2023-07-20T06:40:58;18.40;99.90
12853;DHT22;6495;51.808;7.478;2023-07-20T06:43:29;18.40;99.90
12853;DHT22;6495;51.808;7.478;2023-07-20T06:46:01;18.30;99.90
12853;DHT22;6495;51.808;7.478;2023-07-20T06:48:32;18.30;99.90
12853;DHT22;6495;51.808;7.478;2023-07-20T06:51:21;18.30;99.90
12853;DHT22;6495;51.808;7.478;2023-07-20T06:53:50;18.30;99.90
12853;DHT22;6495;51.808;7.478;2023-07-20T06:56:18;18.20;99.90
12853;DHT22;6495;51.808;7.478;2023-07-20T06:58:51;18.20;99.90
12853;DHT22;6495;51.808;7.478;2023-07-20T07:01:21;18.20;99.90
12853;DHT22;6495;51.808;7.478;2023-07-20T07:03:50;18.20;99.90
12853;DHT22;6495;51.808;7.478;2023-07-20T07:06:21;18.20;99.90
12853;DHT22;6495;51.808;7.478;2023-07-20T07:08:52;18.10;99.90
12853;DHT22;6495;51.808;7.478;2023-07-20T07:11:23;18.10;99.90
12853;DHT22;6495;51.808;7.478;2023-07-20T07:13:52;18.10;99.90
12853;DHT22;6495;51.808;7.478;2023-07-20T07:16:24;18.10;99.90
12853;DHT22;6495;51.808;7.478;2023-07-20T07:18:53;18.10;99.90
12853;DHT22;6495;51.808;7.478;2023-07-20T07:21:26;18.10;99.90
12853;DHT22;6495;51.808;7.478;2023-07-20T07:23:54;18.10;99.90
12853;DHT22;6495;51.808;7.478;2023-07-20T07:26:24;18.10;99.90
12853;DHT22;6495;51.808;7.478;2023-07-20T07:28:52;18.10;99.90
12853;DHT22;6495;51.808;7.478;2023-07-20T07:31:20;18.20;99.90
12853;DHT22;6495;51.808;7.478;2023-07-20T07:33:51;18.30;99.90
12853;DHT22;6495;51.808;7.478;2023-07-20T07:36:19;18.30;99.90
12853;DHT22;6495;51.808;7.478;2023-07-20T07:38:48;18.40;99.90
12853;DHT22;6495;51.808;7.478;2023-07-20T07:41:37;18.50;99.90
12853;DHT22;6495;51.808;7.478;2023-07-20T07:44:05;18.60;99.90
12853;DHT22;6495;51.808;7.478;2023-07-20T07:46:33;18.70;99.90
12853;DHT22;6495;51.808;7.478;2023-07-20T07:49:03;18.80;99.90
12853;DHT22;6495;51.808;7.478;2023-07-20T07:51:31;18.90;99.90
12853;DHT22;6495;51.808;7.478;2023-07-20T07:53:59;19.00;99.90
12853;DHT22;6495;51.808;7.478;2023-07-20T07:56:28;19.20;99.90
12853;DHT22;6495;51.808;7.478;2023-07-20T07:58:56;19.40;99.90
12853;DHT22;6495;51.808;7.478;2023-07-20T08:01:25;19.50;99.90
12853;DHT22;6495;51.808;7.478;2023-07-20T08:03:54;19.70;99.90
12853;DHT22;6495;51.808;7.478;2023-07-20T08:06:24;19.80;99.90
12853;DHT22;6495;51.808;7.478;2023-07-20T08:08:53;20.00;99.90
12853;DHT22;6495;51.808;7.478;2023-07-20T08:11:21;20.10;99.90
12853;DHT22;6495;51.808;7.478;2023-07-20T08:13:49;20.10;99.90
12853;DHT22;6495;51.808;7.478;2023-07-20T08:16:17;20.20;99.90
12853;DHT22;6495;51.808;7.478;2023-07-20T08:18:45;20.30;99.90
12853;DHT22;6495;51.808;7.478;2023-07-20T08:21:14;20.30;99.90
12853;DHT22;6495;51.808;7.478;2023-07-20T08:23:43;20.40;99.90
12853;DHT22;6495;51.808;7.478;2023-07-20T08:26:11;20.40;99.90
12853;DHT22;6495;51.808;7.478;2023-07-20T08:28:39;20.50;99.90
12853;DHT22;6495;51.808;7.478;2023-07-20T08:31:10;20.60;99.90
12853;DHT22;6495;51.808;7.478;2023-07-20T08:33:39;20.60;99.90
12853;DHT22;6495;51.808;7.478;2023-07-20T08:36:07;20.70;99.90
12853;DHT22;6495;51.808;7.478;2023-07-20T08:38:38;20.70;99.90
12853;DHT22;6495;51.808;7.478;2023-07-20T08:41:08;20.80;99.90
12853;DHT22;6495;51.808;7.478;2023-07-20T08:43:37;20.80;99.90
12853;DHT22;6495;51.808;7.478;2023-07-20T08:46:11;20.90;99.90
12853;DHT22;6495;51.808;7.478;2023-07-20T08:48:42;20.90;99.90
12853;DHT22;6495;51.808;7.478;2023-07-20T08:51:11;20.90;99.90
12853;DHT22;6495;51.808;7.478;2023-07-20T08:53:40;21.00;99.90
12853;DHT22;6495;51.808;7.478;2023-07-20T08:56:11;21.00;99.90
12853;DHT22;6495;51.808;7.478;2023-07-20T08:58:43;21.10;99.90
12853;DHT22;6495;51.808;7.478;2023-07-20T09:01:12;21.20;99.90
12853;DHT22;6495;51.808;7.478;2023-07-20T09:03:43;21.30;99.90
12853;DHT22;6495;51.808;7.478;2023-07-20T09:06:13;21.40;99.90
12853;DHT22;6495;51.808;7.478;2023-07-20T09:08:41;21.40;99.90
12853;DHT22;6495;51.808;7.478;2023-07-20T09:11:12;21.60;99.90
12853;DHT22;6495;51.808;7.478;2023-07-20T09:13:41;21.70;99.90
12853;DHT22;6495;51.808;7.478;2023-07-20T09:16:13;21.80;99.90
12853;DHT22;6495;51.808;7.478;2023-07-20T09:18:42;21.90;99.90
12853;DHT22;6495;51.808;7.478;2023-07-20T09:21:11;22.00;99.90
12853;DHT22;6495;51.808;7.478;2023-07-20T09:23:39;22.10;99.90
12853;DHT22;6495;51.808;7.478;2023-07-20T09:26:13;22.20;99.90
12853;DHT22;6495;51.808;7.478;2023-07-20T09:28:43;22.30;99.90
12853;DHT22;6495;51.808;7.478;2023-07-20T09:31:17;22.40;99.90
12853;DHT22;6495;51.808;7.478;2023-07-20T09:33:48;22.40;99.90
12853;DHT22;6495;51.808;7.478;2023-07-20T09:36:22;22.40;99.90
12853;DHT22;6495;51.808;7.478;2023-07-20T09:39:10;22.50;99.90
12853;DHT22;6495;51.808;7.478;2023-07-20T09:41:41;22.50;99.90
12853;DHT22;6495;51.808;7.478;2023-07-20T09:44:14;22.60;99.90
12853;DHT22;6495;51.808;7.478;2023-07-20T09:46:46;22.60;99.90
12853;DHT22;6495;51.808;7.478;2023-07-20T09:49:18;22.60;99.90
12853;DHT22;6495;51.808;7.478;2023-07-20T09:51:52;22.60;99.90
12853;DHT22;6495;51.808;7.478;2023-07-20T09:54:22;22.70;99.90
12853;DHT22;6495;51.808;7.478;2023-07-20T09:56:56;22.70;99.90
12853;DHT22;6495;51.808;7.478;2023-07-20T09:59:24;22.80;99.90
12853;DHT22;6495;51.808;7.478;2023-07-20T10:01:55;22.80;99.90
12853;DHT22;6495;51.808;7.478;2023-07-20T10:04:28;22.90;99.90
12853;DHT22;6495;51.808;7.478;2023-07-20T10:07:00;22.90;99.90
12853;DHT22;6495;51.808;7.478;2023-07-20T10:09:37;22.90;99.90
12853;DHT22;6495;51.808;7.478;2023-07-20T10:12:09;23.00;99.90
12853;DHT22;6495;51.808;7.478;2023-07-20T10:14:49;22.90;99.90
12853;DHT22;6495;51.808;7.478;2023-07-20T10:17:26;23.00;99.90
12853;DHT22;6495;51.808;7.478;2023-07-20T10:19:56;23.10;99.90
12853;DHT22;6495;51.808;7.478;2023-07-20T10:22:37;23.20;99.90
12853;DHT22;6495;51.808;7.478;2023-07-20T10:25:09;23.30;99.90
12853;DHT22;6495;51.808;7.478;2023-07-20T10:27:41;23.40;99.90
12853;DHT22;6495;51.808;7.478;2023-07-20T10:30:10;23.40;99.90
12853;DHT22;6495;51.808;7.478;2023-07-20T10:32:40;23.40;99.90
12853;DHT22;6495;51.808;7.478;2023-07-20T10:35:15;23.40;99.90
12853;DHT22;6495;51.808;7.478;2023-07-20T10:37:49;23.40;99.90
12853;DHT22;6495;51.808;7.478;2023-07-20T10:40:30;23.40;99.90
12853;DHT22;6495;51.808;7.478;2023-07-20T10:43:06;23.30;99.90
12853;DHT22;6495;51.808;7.478;2023-07-20T10:45:47;23.30;99.70
12853;DHT22;6495;51.808;7.478;2023-07-20T10:48:19;23.30;99.50
12853;DHT22;6495;51.808;7.478;2023-07-20T10:51:11;23.30;99.90
12853;DHT22;6495;51.808;7.478;2023-07-20T10:53:41;23.30;99.70
12853;DHT22;6495;51.808;7.478;2023-07-20T10:56:12;23.30;99.90
12853;DHT22;6495;51.808;7.478;2023-07-20T10:58:44;23.30;99.80
12853;DHT22;6495;51.808;7.478;2023-07-20T11:01:14;23.40;99.90
12853;DHT22;6495;51.808;7.478;2023-07-20T11:03:49;23.50;99.90
12853;DHT22;6495;51.808;7.478;2023-07-20T11:06:30;23.60;99.40
12853;DHT22;6495;51.808;7.478;2023-07-20T11:09:06;23.70;98.40
12853;DHT22;6495;51.808;7.478;2023-07-20T11:11:39;23.80;99.10
12853;DHT22;6495;51.808;7.478;2023-07-20T11:14:11;23.80;99.00
12853;DHT22;6495;51.808;7.478;2023-07-20T11:16:50;23.80;98.70
12853;DHT22;6495;51.808;7.478;2023-07-20T11:19:20;23.80;98.70
12853;DHT22;6495;51.808;7.478;2023-07-20T11:21:54;23.80;98.80
12853;DHT22;6495;51.808;7.478;2023-07-20T11:24:30;23.90;98.80
12853;DHT22;6495;51.808;7.478;2023-07-20T11:26:59;24.00;98.60
12853;DHT22;6495;51.808;7.478;2023-07-20T11:29:31;24.10;98.30
12853;DHT22;6495;51.808;7.478;2023-07-20T11:32:01;24.10;98.00
12853;DHT22;6495;51.808;7.478;2023-07-20T11:34:32;24.20;97.80
12853;DHT22;6495;51.808;7.478;2023-07-20T11:37:02;24.20;97.50
12853;DHT22;6495;51.808;7.478;2023-07-20T11:39:34;24.30;97.60
12853;DHT22;6495;51.808;7.478;2023-07-20T11:42:03;24.40;97.40
12853;DHT22;6495;51.808;7.478;2023-07-20T11:44:35;24.50;96.90
12853;DHT22;6495;51.808;7.478;2023-07-20T11:47:05;24.60;97.00
12853;DHT22;6495;51.808;7.478;2023-07-20T11:49:36;24.60;96.50
12853;DHT22;6495;51.808;7.478;2023-07-20T11:52:06;24.70;96.10
12853;DHT22;6495;51.808;7.478;2023-07-20T11:54:38;24.70;96.00
12853;DHT22;6495;51.808;7.478;2023-07-20T11:57:16;24.80;95.70
12853;DHT22;6495;51.808;7.478;2023-07-20T11:59:54;24.80;95.00
12853;DHT22;6495;51.808;7.478;2023-07-20T12:02:24;24.90;94.60
12853;DHT22;6495;51.808;7.478;2023-07-20T12:04:55;25.00;94.70
12853;DHT22;6495;51.808;7.478;2023-07-20T12:07:28;25.10;94.70
12853;DHT22;6495;51.808;7.478;2023-07-20T12:10:06;25.10;94.40
12853;DHT22;6495;51.808;7.478;2023-07-20T12:12:38;25.10;94.10
12853;DHT22;6495;51.808;7.478;2023-07-20T12:15:16;25.20;94.00
12853;DHT22;6495;51.808;7.478;2023-07-20T12:17:48;25.20;92.30
12853;DHT22;6495;51.808;7.478;2023-07-20T12:20:26;25.20;93.30
12853;DHT22;6495;51.808;7.478;2023-07-20T12:22:57;25.30;93.00
12853;DHT22;6495;51.808;7.478;2023-07-20T12:25:41;25.30;92.80
12853;DHT22;6495;51.808;7.478;2023-07-20T12:28:12;25.30;91.10
12853;DHT22;6495;51.808;7.478;2023-07-20T12:30:44;25.30;92.20
12853;DHT22;6495;51.808;7.478;2023-07-20T12:33:13;25.30;92.10
12853;DHT22;6495;51.808;7.478;2023-07-20T12:35:43;25.40;91.40
12853;DHT22;6495;51.808;7.478;2023-07-20T12:38:12;25.40;91.50
12853;DHT22;6495;51.808;7.478;2023-07-20T12:40:40;25.40;91.80
12853;DHT22;6495;51.808;7.478;2023-07-20T12:43:08;25.40;91.50
12853;DHT22;6495;51.808;7.478;2023-07-20T12:45:37;25.50;91.20
12853;DHT22;6495;51.808;7.478;2023-07-20T12:48:07;25.50;90.80
12853;DHT22;6495;51.808;7.478;2023-07-20T12:50:36;25.50;90.70
12853;DHT22;6495;51.808;7.478;2023-07-20T12:53:04;25.50;90.50
12853;DHT22;6495;51.808;7.478;2023-07-20T12:55:33;25.50;90.30
12853;DHT22;6495;51.808;7.478;2023-07-20T12:58:01;25.60;90.10
12853;DHT22;6495;51.808;7.478;2023-07-20T13:00:30;25.60;90.30
12853;DHT22;6495;51.808;7.478;2023-07-20T13:02:59;25.70;88.60
12853;DHT22;6495;51.808;7.478;2023-07-20T13:05:36;25.70;87.50
12853;DHT22;6495;51.808;7.478;2023-07-20T13:08:07;25.80;87.90
12853;DHT22;6495;51.808;7.478;2023-07-20T13:10:38;25.90;87.70
12853;DHT22;6495;51.808;7.478;2023-07-20T13:13:07;25.90;86.30
12853;DHT22;6495;51.808;7.478;2023-07-20T13:15:42;26.00;86.00
12853;DHT22;6495;51.808;7.478;2023-07-20T13:18:12;26.00;83.20
12853;DHT22;6495;51.808;7.478;2023-07-20T13:20:41;26.00;85.00
12853;DHT22;6495;51.808;7.478;2023-07-20T13:23:10;26.10;85.60
12853;DHT22;6495;51.808;7.478;2023-07-20T13:25:38;26.10;84.60
12853;DHT22;6495;51.808;7.478;2023-07-20T13:28:06;26.10;84.10
12853;DHT22;6495;51.808;7.478;2023-07-20T13:30:35;26.10;83.50
12853;DHT22;6495;51.808;7.478;2023-07-20T13:33:07;26.10;83.40
12853;DHT22;6495;51.808;7.478;2023-07-20T13:35:40;26.10;82.70
12853;DHT22;6495;51.808;7.478;2023-07-20T13:38:11;26.10;82.60
12853;DHT22;6495;51.808;7.478;2023-07-20T13:40:40;26.00;81.50
12853;DHT22;6495;51.808;7.478;2023-07-20T13:43:09;26.00;81.20
12853;DHT22;6495;51.808;7.478;2023-07-20T13:45:39;26.00;81.10
12853;DHT22;6495;51.808;7.478;2023-07-20T13:48:07;26.00;81.20
12853;DHT22;6495;51.808;7.478;2023-07-20T13:50:36;26.00;80.80
12853;DHT22;6495;51.808;7.478;2023-07-20T13:53:10;26.10;80.30
12853;DHT22;6495;51.808;7.478;2023-07-20T13:55:41;26.10;80.40
12853;DHT22;6495;51.808;7.478;2023-07-20T13:58:13;26.10;80.00
12853;DHT22;6495;51.808;7.478;2023-07-20T14:00:41;26.10;79.40
12853;DHT22;6495;51.808;7.478;2023-07-20T14:03:09;26.10;79.40
12853;DHT22;6495;51.808;7.478;2023-07-20T14:05:40;26.20;79.70
12853;DHT22;6495;51.808;7.478;2023-07-20T14:08:14;26.30;80.20
12853;DHT22;6495;51.808;7.478;2023-07-20T14:10:43;26.30;79.10
12853;DHT22;6495;51.808;7.478;2023-07-20T14:13:14;26.40;78.60
12853;DHT22;6495;51.808;7.478;2023-07-20T14:15:42;26.50;78.10
12853;DHT22;6495;51.808;7.478;2023-07-20T14:18:11;26.50;77.90
12853;DHT22;6495;51.808;7.478;2023-07-20T14:20:39;26.50;77.60
12853;DHT22;6495;51.808;7.478;2023-07-20T14:23:07;26.50;77.50
12853;DHT22;6495;51.808;7.478;2023-07-20T14:25:37;26.50;77.10
12853;DHT22;6495;51.808;7.478;2023-07-20T14:28:05;26.60;77.10
12853;DHT22;6495;51.808;7.478;2023-07-20T14:30:33;26.60;77.10
12853;DHT22;6495;51.808;7.478;2023-07-20T14:33:02;26.60;76.90
12853;DHT22;6495;51.808;7.478;2023-07-20T14:35:31;26.60;76.60
12853;DHT22;6495;51.808;7.478;2023-07-20T14:38:00;26.50;76.20
12853;DHT22;6495;51.808;7.478;2023-07-20T14:40:28;26.50;76.30
12853;DHT22;6495;51.808;7.478;2023-07-20T14:42:58;26.40;75.50
12853;DHT22;6495;51.808;7.478;2023-07-20T14:45:27;26.40;75.60
12853;DHT22;6495;51.808;7.478;2023-07-20T14:47:56;26.40;76.00
12853;DHT22;6495;51.808;7.478;2023-07-20T14:50:24;26.40;75.60
12853;DHT22;6495;51.808;7.478;2023-07-20T14:52:53;26.40;75.00
12853;DHT22;6495;51.808;7.478;2023-07-20T14:55:21;26.30;75.60
12853;DHT22;6495;51.808;7.478;2023-07-20T14:57:50;26.40;74.90
12853;DHT22;6495;51.808;7.478;2023-07-20T15:00:20;26.40;74.80
12853;DHT22;6495;51.808;7.478;2023-07-20T15:02:49;26.40;74.80
12853;DHT22;6495;51.808;7.478;2023-07-20T15:05:23;26.40;74.10
12853;DHT22;6495;51.808;7.478;2023-07-20T15:07:54;26.50;73.60
12853;DHT22;6495;51.808;7.478;2023-07-20T15:10:25;26.60;74.00
12853;DHT22;6495;51.808;7.478;2023-07-20T15:12:53;26.60;73.80
12853;DHT22;6495;51.808;7.478;2023-07-20T15:19:25;26.70;70.30
12853;DHT22;6495;51.808;7.478;2023-07-20T15:21:54;26.80;73.40
12853;DHT22;6495;51.808;7.478;2023-07-20T15:24:23;26.90;73.10
12853;DHT22;6495;51.808;7.478;2023-07-20T15:26:52;27.00;72.50
12853;DHT22;6495;51.808;7.478;2023-07-20T15:29:20;27.10;72.60
12853;DHT22;6495;51.808;7.478;2023-07-20T15:31:56;27.10;71.50
12853;DHT22;6495;51.808;7.478;2023-07-20T15:34:28;27.10;71.30
12853;DHT22;6495;51.808;7.478;2023-07-20T15:36:57;27.10;71.30
12853;DHT22;6495;51.808;7.478;2023-07-20T15:39:25;27.10;71.20
12853;DHT22;6495;51.808;7.478;2023-07-20T15:41:56;27.20;70.70
12853;DHT22;6495;51.808;7.478;2023-07-20T15:44:25;27.20;70.20
12853;DHT22;6495;51.808;7.478;2023-07-20T15:46:53;27.20;70.30
12853;DHT22;6495;51.808;7.478;2023-07-20T15:49:21;27.20;70.00
12853;DHT22;6495;51.808;7.478;2023-07-20T15:51:52;27.20;70.10
12853;DHT22;6495;51.808;7.478;2023-07-20T15:54:25;27.20;70.20
12853;DHT22;6495;51.808;7.478;2023-07-20T15:56:53;27.20;70.10
12853;DHT22;6495;51.808;7.478;2023-07-20T15:59:22;27.20;69.70
12853;DHT22;6495;51.808;7.478;2023-07-20T16:01:51;27.20;69.30
12853;DHT22;6495;51.808;7.478;2023-07-20T16:04:20;27.20;69.30
12853;DHT22;6495;51.808;7.478;2023-07-20T16:06:52;27.20;69.10
12853;DHT22;6495;51.808;7.478;2023-07-20T16:09:20;27.10;69.00
12853;DHT22;6495;51.808;7.478;2023-07-20T16:11:50;27.10;69.00
12853;DHT22;6495;51.808;7.478;2023-07-20T16:14:18;27.00;68.90
12853;DHT22;6495;51.808;7.478;2023-07-20T16:16:47;26.90;69.10